Tropical Cyclones
[Index]
Main Index Home Page Stock Weather Photos Extreme Storms Discussion Storm News and Storm Chasing Reports Tropical Cyclones / Hurricanes / Typhoons Weather Data and Links Wild Fires / Bushfires Weather Observation Techniques Weather Picture Catalogue Tornado Pictures and Reports Stock Video Footage and DVDs for sale
Season 1988-1989 Tropical Cyclone HARRY Track Map
Season 1988-1989 Summaries: [BoM-AU] [JTWC-AU] [JTWC-SIO] [JTWC-SPAC] [JTWC-SH]
<<- Previous TC | JTWC 1988-1989 Season | Next TC ->>

click for intensity scale information  Lat/long Grid: Show Hide

 Date Labels: Show Hide

Joint Typhoon Warning Centre Cyclone Data

Name: HARRY

06 Feb 1989 06:00 UTC to 22 Feb 1989 00:00 UTC

    date/time    lat    long     hPa   cat  kts
1989-02-06 06   15.5   163.7                  20          
1989-02-06 12   15.8   163.2                  20          
1989-02-06 18   16.2   162.7                  25          
1989-02-07 00   16.3   162.4                  25          
1989-02-07 06   16.5   162.0                  25          
1989-02-07 12   16.7   161.8                  25          
1989-02-07 18   17.0   161.5                  30          
1989-02-08 00   17.3   161.4                  30          
1989-02-08 06   17.7   161.6                  35          
1989-02-08 12   18.3   162.3            1     45          
1989-02-08 18   18.5   163.1            1     45          
1989-02-09 00   18.2   163.7            2     55          
1989-02-09 06   18.1   164.3            2     55          
1989-02-09 12   18.3   165.0            2     60          
1989-02-09 18   18.5   165.5            2     70          
1989-02-10 00   18.7   165.6            3     80          
1989-02-10 06   19.2   165.6            3     90          
1989-02-10 12   19.3   165.5            4    110          
1989-02-10 18   19.7   165.4            4    115          
1989-02-11 00   20.1   164.9            4    115          
1989-02-11 06   20.5   164.4            4    110          
1989-02-11 12   20.9   163.6            4    105          
1989-02-11 18   21.0   162.9            4    100          
1989-02-12 00   20.9   162.5            3     95          
1989-02-12 06   20.7   162.2            3     90          
1989-02-12 12   20.6   161.5            3     80          
1989-02-12 18   20.4   161.1            3     80          
1989-02-13 00   20.0   160.6            3     80          
1989-02-13 06   19.7   160.1            3     90          
1989-02-13 12   19.4   159.7            3     95          
1989-02-13 18   19.3   159.3            4    105          
1989-02-14 00   19.2   158.8            4    115          
1989-02-14 06   19.0   158.4            5    125          
1989-02-14 12   19.0   157.9            5    130          
1989-02-14 18   19.1   157.6            5    125          
1989-02-15 00   19.3   157.4            4    120          
1989-02-15 06   19.4   157.4            4    115          
1989-02-15 12   19.5   157.5            4    115          
1989-02-15 18   19.6   157.6            4    110          
1989-02-16 00   19.7   157.7            4    110          
1989-02-16 06   19.8   157.8            4    105          
1989-02-16 12   19.8   158.2            3     95          
1989-02-16 18   19.9   158.8            3     90          
1989-02-17 00   20.3   159.5            3     80          
1989-02-17 06   20.7   160.2            3     80          
1989-02-17 12   21.2   160.9            3     80          
1989-02-17 18   21.7   161.7            3     80          
1989-02-18 00   22.3   162.6            2     70          
1989-02-18 06   23.0   163.0            2     60          
1989-02-18 12   23.9   163.9            2     55          
1989-02-18 18   24.7   164.9            1     45          
1989-02-19 00   25.8   165.4                  35          
1989-02-19 06   26.5   165.4                  35          
1989-02-19 12   27.2   165.2                  35          
1989-02-19 18   27.8   164.9            1     40          
1989-02-20 00   28.8   164.3            1     45          
1989-02-20 06   29.7   163.8            1     50          
1989-02-20 12   30.9   163.2            2     60          
1989-02-20 18   32.2   163.0            2     55          
1989-02-21 00   33.6   163.0            2     55          
1989-02-21 06   35.5   163.1            2     55          
1989-02-21 12   37.8   163.3            2     55          
1989-02-21 18   40.3   164.0            2     60          
1989-02-22 00   43.0   165.0            2     60          
Winds are 1-min average.

Tropical cyclone tracks developed by Michael Bath using data from the Joint Typhoon Warning Centre Best Tracks and Google Maps.


[Australian Severe Weather index] [Copyright Notice] [Email Contacts] [Search This Site] [Privacy Policy]
Document: tropical_cyclone_harry.htm Updated: 18 September 2016